Terminal Aerodrome Forecast
Issued by NWS North Platte, NE

Home | Current Version | Previous Version | Text Only | Print | Product List | Glossary On
Versions: 1 2 3 4 5 6 7 8 9 10 11 12 13 14 15 16 17 18 19
070
FTUS43 KLBF 231415 AAA
TAFVTN
TAF AMD
KVTN 231415Z 2314/2412 04014G20KT 1/2SM SN FZFG VV008
     FM240200 01015G24KT 1SM -SN OVC008=

USA.gov is the U.S. government's official web portal to all federal, state and local government web resources and services.